Woodstock, Canada
Current Conditions -  °F | °C
As of 7:53 PM on Thursday 18 Dec 2014 (Local Time) from KHUL Reporting Station
Light Snow Light Snow  
Wind Chill: -8°   Ceiling: 1900
Heat Index: -2°   Visibility: 7mi
Dew Point: -5°   Wind: 14mph
Humidity: 81%   Direction: 330°NNW
Pressure: 29.58"   Gusts: NA
Location:  46.15°N, 67.58°W
Report Text: KHUL 182353Z AUTO 33012KT 7SM -SN BKN019 OVC029 M02/M05 A2958 RMK AO2 SNB2255 SLP025 P0000 60000 T10221050 11011 21022 53015
Loading
Personal Weather Stations






























Interactive Weather Map New forecast layout! Learn more

10-Day Weather Forecast

Advertisements
Track Severe Weather on mobile